createdAt,value
2018-04-04T00:00:43.201Z,10.37
2018-04-04T00:03:11.928Z,12.17
2018-04-04T00:05:41.498Z,10.47
2018-04-04T00:08:10.223Z,10.13
2018-04-04T00:10:39.722Z,10.50
2018-04-04T00:13:09.336Z,8.80
2018-04-04T00:15:38.331Z,10.23
2018-04-04T00:18:07.741Z,10.53
2018-04-04T00:20:36.731Z,9.17
2018-04-04T00:23:06.166Z,11.57
2018-04-04T00:25:35.063Z,10.43
2018-04-04T00:28:03.819Z,10.30
2018-04-04T00:30:32.742Z,10.73
2018-04-04T00:33:01.522Z,10.07
2018-04-04T00:35:30.490Z,10.10
2018-04-04T00:37:59.893Z,10.93
2018-04-04T00:40:29.371Z,10.60
2018-04-04T00:42:58.102Z,10.27
2018-04-04T00:45:27.646Z,11.17
2018-04-04T00:47:56.325Z,10.57
2018-04-04T00:50:25.280Z,10.67
2018-04-04T00:52:53.962Z,10.77
2018-04-04T00:55:23.506Z,10.10
2018-04-04T00:57:52.262Z,9.50
2018-04-04T01:00:21.770Z,9.50
2018-04-04T01:02:50.482Z,11.57
2018-04-04T01:05:19.455Z,9.80
2018-04-04T01:07:48.238Z,12.20
2018-04-04T01:10:17.711Z,10.97
2018-04-04T01:12:46.435Z,9.93
2018-04-04T01:15:15.830Z,10.10
2018-04-04T01:17:45.516Z,10.17
2018-04-04T01:20:14.538Z,9.77
2018-04-04T01:22:43.950Z,10.30
2018-04-04T01:25:13.513Z,9.90
2018-04-04T01:27:42.247Z,10.57
2018-04-04T01:30:11.715Z,10.70
2018-04-04T01:32:40.438Z,9.67
2018-04-04T01:35:09.861Z,9.53
2018-04-04T01:37:38.631Z,10.13
2018-04-04T01:40:08.144Z,10.20
2018-04-04T01:42:37.747Z,9.97
2018-04-04T01:45:07.391Z,10.70
2018-04-04T01:47:36.444Z,11.00
2018-04-04T01:50:05.244Z,10.00
2018-04-04T01:52:33.934Z,9.33
2018-04-04T01:55:03.503Z,11.77
2018-04-04T01:57:32.230Z,9.40
2018-04-04T02:00:02.105Z,10.47
2018-04-04T02:02:30.991Z,10.20
2018-04-04T02:05:00.087Z,10.53
2018-04-04T02:07:29.009Z,10.53
2018-04-04T02:09:58.637Z,11.10
2018-04-04T02:12:28.071Z,11.77
2018-04-04T02:14:56.962Z,12.10
2018-04-04T02:17:25.720Z,14.50
2018-04-04T02:19:54.710Z,13.70
2018-04-04T02:22:24.156Z,12.30
2018-04-04T02:24:53.043Z,12.47
2018-04-04T02:27:21.799Z,12.00
2018-04-04T02:29:50.794Z,10.63
2018-04-04T02:32:20.231Z,11.20
2018-04-04T02:34:49.130Z,11.20
2018-04-04T02:37:17.883Z,11.67
2018-04-04T02:39:46.875Z,10.40
2018-04-04T02:42:16.306Z,10.43
2018-04-04T02:44:45.165Z,10.27
2018-04-04T02:47:14.770Z,11.20
2018-04-04T02:49:43.627Z,10.77
2018-04-04T02:52:12.286Z,10.80
2018-04-04T02:54:41.213Z,10.23
2018-04-04T02:57:09.966Z,10.47
2018-04-04T02:59:38.787Z,10.83
2018-04-04T03:02:07.708Z,11.80
2018-04-04T03:04:37.436Z,10.47
2018-04-04T03:07:06.251Z,11.13
2018-04-04T03:09:35.223Z,10.77
2018-04-04T03:12:04.002Z,11.60
2018-04-04T03:14:33.615Z,10.63
2018-04-04T03:17:03.007Z,11.80
2018-04-04T03:19:31.743Z,12.33
2018-04-04T03:22:00.499Z,12.73
2018-04-04T03:24:29.998Z,10.30
2018-04-04T03:26:59.495Z,11.13
2018-04-04T03:29:29.225Z,10.00
2018-04-04T03:31:57.935Z,11.53
2018-04-04T03:34:26.936Z,11.80
2018-04-04T03:36:55.794Z,9.90
2018-04-04T03:39:25.407Z,9.40
2018-04-04T03:41:54.091Z,10.00
2018-04-04T03:44:23.676Z,10.07
2018-04-04T03:46:52.382Z,9.13
2018-04-04T03:49:21.814Z,10.63
2018-04-04T03:51:50.615Z,11.17
2018-04-04T03:54:19.507Z,12.00
2018-04-04T03:56:48.267Z,9.80
2018-04-04T03:59:17.779Z,9.87
2018-04-04T04:01:46.487Z,10.57
2018-04-04T04:04:15.451Z,10.13
2018-04-04T04:06:44.243Z,10.57
2018-04-04T04:09:13.742Z,10.40
2018-04-04T04:11:43.355Z,10.63
2018-04-04T04:14:13.066Z,11.10
2018-04-04T04:16:42.764Z,11.33
2018-04-04T04:19:12.386Z,10.73
2018-04-04T04:21:41.722Z,12.53
2018-04-04T04:24:10.615Z,10.90
2018-04-04T04:26:39.374Z,11.10
2018-04-04T04:29:08.267Z,13.17
2018-04-04T04:31:37.704Z,9.43
2018-04-04T04:34:06.663Z,11.00
2018-04-04T04:36:36.359Z,11.50
2018-04-04T04:39:05.775Z,11.57
2018-04-04T04:41:35.281Z,11.23
2018-04-04T04:44:05.159Z,10.57
2018-04-04T04:46:34.051Z,12.07
2018-04-04T04:49:02.970Z,11.70
2018-04-04T04:51:32.495Z,12.67
2018-04-04T04:54:02.102Z,14.50
2018-04-04T04:56:31.740Z,10.93
2018-04-04T04:59:00.699Z,10.40
2018-04-04T05:01:30.215Z,9.97
2018-04-04T05:04:00.009Z,11.20
2018-04-04T05:06:28.743Z,9.63
2018-04-04T05:08:57.534Z,11.07
2018-04-04T05:11:26.286Z,11.30
2018-04-04T05:13:55.686Z,11.00
2018-04-04T05:16:25.264Z,10.80
2018-04-04T05:18:54.294Z,9.33
2018-04-04T05:21:23.703Z,9.40
2018-04-04T05:23:52.704Z,10.40
2018-04-04T05:26:22.096Z,9.83
2018-04-04T05:28:51.766Z,9.57
2018-04-04T05:31:20.664Z,10.10
2018-04-04T05:33:49.390Z,9.97
2018-04-04T05:36:18.010Z,10.70
2018-04-04T05:38:46.865Z,12.10
2018-04-04T05:41:16.256Z,10.87
2018-04-04T05:43:45.172Z,10.67
2018-04-04T05:46:13.855Z,10.37
2018-04-04T05:48:42.770Z,10.10
2018-04-04T05:51:11.695Z,11.20
2018-04-04T05:53:40.766Z,9.30
2018-04-04T05:56:09.722Z,10.10
2018-04-04T05:58:39.371Z,11.40
2018-04-04T06:01:08.636Z,10.30
2018-04-04T06:03:38.659Z,10.97
2018-04-04T06:06:07.754Z,10.10
2018-04-04T06:08:36.987Z,10.30
2018-04-04T06:11:05.982Z,11.67
2018-04-04T06:13:34.970Z,12.63
2018-04-04T06:16:03.970Z,11.90
2018-04-04T06:18:33.099Z,11.57
2018-04-04T06:21:02.166Z,11.40
2018-04-04T06:23:31.158Z,12.77
2018-04-04T06:26:00.156Z,11.07
2018-04-04T06:28:29.278Z,12.33
2018-04-04T06:30:59.157Z,13.30
2018-04-04T06:33:28.437Z,11.97
2018-04-04T06:35:58.411Z,12.07
2018-04-04T06:38:27.683Z,12.13
2018-04-04T06:40:56.878Z,10.93
2018-04-04T06:43:26.057Z,12.63
2018-04-04T06:45:55.647Z,14.87
2018-04-04T06:48:24.750Z,12.90
2018-04-04T06:50:53.631Z,12.83
2018-04-04T06:53:22.725Z,13.03
2018-04-04T06:55:51.951Z,12.27
2018-04-04T06:58:21.999Z,12.60
2018-04-04T07:00:50.987Z,13.93
2018-04-04T07:03:20.118Z,14.67
2018-04-04T07:05:49.079Z,15.10
2018-04-04T07:08:18.209Z,14.80
2018-04-04T07:10:47.175Z,16.30
2018-04-04T07:13:16.340Z,14.30
2018-04-04T07:15:46.079Z,16.03
2018-04-04T07:18:15.471Z,13.80
2018-04-04T07:20:44.546Z,13.23
2018-04-04T07:23:13.757Z,14.17
2018-04-04T07:25:42.779Z,14.80
2018-04-04T07:28:12.566Z,15.00
2018-04-04T07:30:42.375Z,14.40
2018-04-04T07:33:12.392Z,15.10
2018-04-04T07:35:42.086Z,14.63
2018-04-04T07:38:11.163Z,15.70
2018-04-04T07:40:41.044Z,15.70
2018-04-04T07:43:10.418Z,14.87
2018-04-04T07:45:40.395Z,13.97
2018-04-04T07:48:10.209Z,15.20
2018-04-04T07:50:40.195Z,15.73
2018-04-04T07:53:09.774Z,15.47
2018-04-04T07:55:39.686Z,14.93
2018-04-04T07:58:08.922Z,15.10
2018-04-04T08:00:38.115Z,14.30
2018-04-04T08:03:07.395Z,13.40
2018-04-04T08:05:37.366Z,13.03
2018-04-04T08:08:06.639Z,14.50
2018-04-04T08:10:35.736Z,13.90
2018-04-04T08:13:04.907Z,13.47
2018-04-04T08:15:34.507Z,13.87
2018-04-04T08:18:03.575Z,13.93
2018-04-04T08:20:33.456Z,14.37
2018-04-04T08:23:02.627Z,13.60
2018-04-04T08:25:31.651Z,13.90
2018-04-04T08:28:00.875Z,14.30
2018-04-04T08:30:30.830Z,14.80
2018-04-04T08:32:59.964Z,14.50
2018-04-04T08:35:29.055Z,14.33
2018-04-04T08:37:58.363Z,13.90
2018-04-04T08:40:27.355Z,15.07
2018-04-04T08:42:56.539Z,15.10
2018-04-04T08:45:25.671Z,13.53
2018-04-04T08:47:54.859Z,13.70
2018-04-04T08:50:23.747Z,14.03
2018-04-04T08:52:52.815Z,14.87
2018-04-04T08:55:21.915Z,13.80
2018-04-04T08:57:51.039Z,14.30
2018-04-04T09:00:21.287Z,14.17
2018-04-04T09:02:50.675Z,15.03
2018-04-04T09:05:19.668Z,13.17
2018-04-04T09:07:48.794Z,13.83
2018-04-04T09:10:18.671Z,15.80
2018-04-04T09:12:47.944Z,14.73
2018-04-04T09:15:17.039Z,16.47
2018-04-04T09:17:47.263Z,16.43
2018-04-04T09:20:16.907Z,14.30
2018-04-04T09:22:46.137Z,14.37
2018-04-04T09:25:16.014Z,13.70
2018-04-04T09:27:45.191Z,14.67
2018-04-04T09:30:15.593Z,15.30
2018-04-04T09:32:44.645Z,14.20
2018-04-04T09:35:13.707Z,13.27
2018-04-04T09:37:43.886Z,14.50
2018-04-04T09:40:13.023Z,16.70
2018-04-04T09:42:42.834Z,13.70
2018-04-04T09:45:11.832Z,14.80
2018-04-04T09:47:40.900Z,15.30
2018-04-04T09:50:10.639Z,13.07
2018-04-04T09:52:39.947Z,15.60
2018-04-04T09:55:09.044Z,13.10
2018-04-04T09:57:39.119Z,13.37
2018-04-04T10:00:08.305Z,12.73
2018-04-04T10:02:37.766Z,15.50
2018-04-04T10:05:07.779Z,13.90
2018-04-04T10:07:38.442Z,17.10
2018-04-04T10:10:07.610Z,14.37
2018-04-04T10:12:36.838Z,12.80
2018-04-04T10:15:05.906Z,14.90
2018-04-04T10:17:35.119Z,14.50
2018-04-04T10:20:05.088Z,13.17
2018-04-04T10:22:34.361Z,12.83
2018-04-04T10:25:04.890Z,14.13
2018-04-04T10:27:34.164Z,14.60
2018-04-04T10:30:03.267Z,13.73
2018-04-04T10:32:33.374Z,14.17
2018-04-04T10:35:03.020Z,12.83
2018-04-04T10:37:32.226Z,13.70
2018-04-04T10:40:01.210Z,14.60
2018-04-04T10:42:30.351Z,13.53
2018-04-04T10:45:00.223Z,17.53
2018-04-04T10:47:29.495Z,16.07
2018-04-04T10:49:59.471Z,14.73
2018-04-04T10:52:28.639Z,12.80
2018-04-04T10:54:57.734Z,13.90
2018-04-04T10:57:27.011Z,14.70
2018-04-04T10:59:56.912Z,14.10
2018-04-04T11:02:26.122Z,12.60
2018-04-04T11:04:55.459Z,13.60
2018-04-04T11:07:24.834Z,15.37
2018-04-04T11:09:53.931Z,14.63
2018-04-04T11:12:23.145Z,14.90
2018-04-04T11:14:52.055Z,13.63
2018-04-04T11:17:21.183Z,13.33
2018-04-04T11:19:50.152Z,15.40
2018-04-04T11:22:19.266Z,14.93
2018-04-04T11:24:48.204Z,14.07
2018-04-04T11:27:17.591Z,12.90
2018-04-04T11:29:47.659Z,12.40
2018-04-04T11:32:16.940Z,12.60
2018-04-04T11:34:46.768Z,12.37
2018-04-04T11:37:15.971Z,12.90
2018-04-04T11:39:45.035Z,13.57
2018-04-04T11:42:15.015Z,12.47
2018-04-04T11:44:44.810Z,14.13
2018-04-04T11:47:14.815Z,11.40
2018-04-04T11:49:43.906Z,12.80
2018-04-04T11:52:13.186Z,12.30
2018-04-04T11:54:43.159Z,13.20
2018-04-04T11:57:12.325Z,12.80
2018-04-04T11:59:41.424Z,13.67
2018-04-04T12:02:10.599Z,12.50
2018-04-04T12:04:39.695Z,11.90
2018-04-04T12:07:09.772Z,12.20
2018-04-04T12:09:39.039Z,13.30
2018-04-04T12:12:08.227Z,12.30
2018-04-04T12:14:37.963Z,12.13
2018-04-04T12:17:07.387Z,12.40
2018-04-04T12:19:36.523Z,12.40
2018-04-04T12:22:05.831Z,12.60
2018-04-04T12:24:34.931Z,13.07
2018-04-04T12:27:04.946Z,12.53
2018-04-04T12:29:34.595Z,12.63
2018-04-04T12:32:03.682Z,12.07
2018-04-04T12:34:32.778Z,13.10
2018-04-04T12:37:01.967Z,13.70
2018-04-04T12:39:30.926Z,12.53
2018-04-04T12:42:00.005Z,12.57
2018-04-04T12:44:29.879Z,12.30
2018-04-04T12:46:59.155Z,11.30
2018-04-04T12:49:29.171Z,12.60
2018-04-04T12:51:58.951Z,12.97
2018-04-04T12:54:27.918Z,13.30
2018-04-04T12:56:57.013Z,12.03
2018-04-04T12:59:26.007Z,12.43
2018-04-04T13:01:55.136Z,12.70
2018-04-04T13:04:24.122Z,12.10
2018-04-04T13:06:53.373Z,12.30
2018-04-04T13:09:23.382Z,13.17
2018-04-04T13:11:54.149Z,12.20
2018-04-04T13:14:22.705Z,13.50
2018-04-04T13:16:52.002Z,13.70
2018-04-04T13:19:21.001Z,13.93
2018-04-04T13:21:51.116Z,13.33
2018-04-04T13:24:20.764Z,12.83
2018-04-04T13:26:49.892Z,12.77
2018-04-04T13:29:19.671Z,12.93
2018-04-04T13:31:48.959Z,13.67
2018-04-04T13:34:18.044Z,12.93
2018-04-04T13:36:47.273Z,14.80
2018-04-04T13:39:16.271Z,12.77
2018-04-04T13:41:45.396Z,14.77
2018-04-04T13:44:14.255Z,15.00
2018-04-04T13:46:43.385Z,14.00
2018-04-04T13:49:12.355Z,14.87
2018-04-04T13:51:41.342Z,11.57
2018-04-04T13:54:10.374Z,14.40
2018-04-04T13:56:40.427Z,13.80
2018-04-04T13:59:09.522Z,12.30
2018-04-04T14:01:39.699Z,13.97
2018-04-04T14:04:08.836Z,14.40
2018-04-04T14:06:38.171Z,14.10
2018-04-04T14:09:07.267Z,12.90
2018-04-04T14:11:36.471Z,13.87
2018-04-04T14:14:05.782Z,14.73
2018-04-04T14:16:34.803Z,14.00
2018-04-04T14:19:04.679Z,12.77
2018-04-04T14:21:33.965Z,13.40
2018-04-04T14:24:03.183Z,13.37
2018-04-04T14:26:32.178Z,14.43
2018-04-04T14:29:01.197Z,14.00
2018-04-04T14:31:32.586Z,13.50
2018-04-04T14:34:01.721Z,15.03
2018-04-04T14:36:30.995Z,13.30
2018-04-04T14:39:00.964Z,14.37
2018-04-04T14:41:30.240Z,12.17
2018-04-04T14:43:59.298Z,14.00
2018-04-04T14:46:28.502Z,12.40
2018-04-04T14:48:57.630Z,13.43
2018-04-04T14:51:26.740Z,14.73
2018-04-04T14:53:55.727Z,12.53
2018-04-04T14:56:32.055Z,13.23
2018-04-04T14:59:02.411Z,13.20
2018-04-04T15:01:31.688Z,13.00
2018-04-04T15:04:01.643Z,12.90
2018-04-04T15:06:30.931Z,11.87
2018-04-04T15:09:00.032Z,12.40
2018-04-04T15:11:29.303Z,13.70
2018-04-04T15:13:59.279Z,14.20
2018-04-04T15:16:28.639Z,11.67
2018-04-04T15:18:57.643Z,12.37
2018-04-04T15:21:26.814Z,13.27
2018-04-04T15:23:55.915Z,13.67
2018-04-04T15:26:25.143Z,13.87
2018-04-04T15:28:54.039Z,13.70
2018-04-04T15:31:23.179Z,14.13
2018-04-04T15:33:52.135Z,13.20
2018-04-04T15:36:21.261Z,14.43
2018-04-04T15:38:50.175Z,14.30
2018-04-04T15:41:19.206Z,12.43
2018-04-04T15:43:48.111Z,13.50
2018-04-04T15:46:17.235Z,13.30
2018-04-04T15:48:46.099Z,14.53
2018-04-04T15:51:15.238Z,13.77
2018-04-04T15:53:44.196Z,12.67
2018-04-04T15:56:13.324Z,14.60
2018-04-04T15:58:42.239Z,14.27
2018-04-04T16:01:11.444Z,14.90
2018-04-04T16:03:41.287Z,13.50
2018-04-04T16:06:11.128Z,14.70
2018-04-04T16:08:40.462Z,13.60
2018-04-04T16:11:09.802Z,13.90
2018-04-04T16:13:38.802Z,13.60
2018-04-04T16:16:08.211Z,13.37
2018-04-04T16:18:37.214Z,13.33
2018-04-04T16:21:07.219Z,14.57
2018-04-04T16:23:36.314Z,13.90
2018-04-04T16:26:05.490Z,14.37
2018-04-04T16:28:35.491Z,13.60
2018-04-04T16:31:05.455Z,13.77
2018-04-04T16:33:34.605Z,12.97
2018-04-04T16:36:03.718Z,13.57
2018-04-04T16:38:33.558Z,14.00
2018-04-04T16:41:02.736Z,15.97
2018-04-04T16:43:31.832Z,13.77
2018-04-04T16:46:01.947Z,14.00
2018-04-04T16:48:31.098Z,13.27
2018-04-04T16:51:00.351Z,13.40
2018-04-04T16:53:29.552Z,12.87
2018-04-04T16:55:58.779Z,13.23
2018-04-04T16:58:27.776Z,13.27
2018-04-04T17:00:56.870Z,13.03
2018-04-04T17:03:25.871Z,12.93
2018-04-04T17:05:54.999Z,15.57
2018-04-04T17:08:23.950Z,12.90
2018-04-04T17:10:53.086Z,14.50
2018-04-04T17:13:22.012Z,15.30
2018-04-04T17:15:51.112Z,15.50
2018-04-04T17:18:21.031Z,14.07
2018-04-04T17:20:50.739Z,12.53
2018-04-04T17:23:20.027Z,14.03
2018-04-04T17:25:49.371Z,14.43
2018-04-04T17:28:18.468Z,14.50
2018-04-04T17:30:47.744Z,16.10
2018-04-04T17:33:17.764Z,14.23
2018-04-04T17:35:47.639Z,13.80
2018-04-04T17:38:16.551Z,13.60
2018-04-04T17:40:45.666Z,13.13
2018-04-04T17:43:15.686Z,12.20
2018-04-04T17:45:45.804Z,12.13
2018-04-04T17:48:15.591Z,13.60
2018-04-04T17:50:45.843Z,13.93
2018-04-04T17:53:15.819Z,13.97
2018-04-04T17:55:45.087Z,15.23
2018-04-04T17:58:14.183Z,17.70
2018-04-04T18:00:43.472Z,17.43
2018-04-04T18:03:13.434Z,18.47
2018-04-04T18:05:42.702Z,17.20
2018-04-04T18:08:11.799Z,18.30
2018-04-04T18:10:40.975Z,17.93
2018-04-04T18:13:10.994Z,19.80
2018-04-04T18:15:40.219Z,17.60
2018-04-04T18:18:09.326Z,19.53
2018-04-04T18:20:38.826Z,18.33
2018-04-04T18:23:08.400Z,19.93
2018-04-04T18:25:44.357Z,18.80
2018-04-04T18:28:15.938Z,19.63
2018-04-04T18:30:45.418Z,20.10
2018-04-04T18:33:14.656Z,19.10
2018-04-04T18:35:44.878Z,16.70
2018-04-04T18:38:14.103Z,19.77
2018-04-04T18:40:43.078Z,19.03
2018-04-04T18:43:13.567Z,18.27
2018-04-04T18:45:42.563Z,19.77
2018-04-04T18:48:11.718Z,17.37
2018-04-04T18:50:40.687Z,15.67
2018-04-04T18:53:09.819Z,17.13
2018-04-04T18:55:38.679Z,14.50
2018-04-04T18:58:07.834Z,14.17
2018-04-04T19:00:36.771Z,14.00
2018-04-04T19:03:05.895Z,16.60
2018-04-04T19:05:35.776Z,16.60
2018-04-04T19:08:05.050Z,18.00
2018-04-04T19:10:35.023Z,16.23
2018-04-04T19:13:04.263Z,15.60
2018-04-04T19:15:33.396Z,16.97
2018-04-04T19:18:02.666Z,17.40
2018-04-04T19:20:31.763Z,16.70
2018-04-04T19:23:01.878Z,17.47
2018-04-04T19:25:30.974Z,18.73
2018-04-04T19:28:00.212Z,17.80
2018-04-04T19:30:29.280Z,17.97
2018-04-04T19:32:58.986Z,18.50
2018-04-04T19:35:27.878Z,17.83
2018-04-04T19:37:56.940Z,17.57
2018-04-04T19:40:25.903Z,16.90
2018-04-04T19:42:54.927Z,17.83
2018-04-04T19:45:24.060Z,16.53
2018-04-04T19:47:53.168Z,16.97
2018-04-04T19:50:22.970Z,17.20
2018-04-04T19:52:52.174Z,16.73
2018-04-04T19:55:21.276Z,16.50
2018-04-04T19:57:51.396Z,16.57
2018-04-04T20:00:21.090Z,17.57
2018-04-04T20:02:50.173Z,17.70
2018-04-04T20:05:20.046Z,16.37
2018-04-04T20:07:49.319Z,15.83
2018-04-04T20:10:19.220Z,15.23
2018-04-04T20:12:48.631Z,16.67
2018-04-04T20:15:17.659Z,16.43
2018-04-04T20:17:47.552Z,17.60
2018-04-04T20:20:16.427Z,16.30
2018-04-04T20:22:45.535Z,18.07
2018-04-04T20:25:15.359Z,18.13
2018-04-04T20:27:44.351Z,16.10
2018-04-04T20:30:13.444Z,16.70
2018-04-04T20:32:43.523Z,17.00
2018-04-04T20:35:12.555Z,16.27
2018-04-04T20:37:41.855Z,16.53
2018-04-04T20:40:10.884Z,16.63
2018-04-04T20:42:39.951Z,18.13
2018-04-04T20:45:09.042Z,17.73
2018-04-04T20:47:38.519Z,19.10
2018-04-04T20:50:07.544Z,17.97
2018-04-04T20:52:37.563Z,18.30
2018-04-04T20:55:07.569Z,17.63
2018-04-04T20:57:36.785Z,17.30
2018-04-04T21:00:05.908Z,18.13
2018-04-04T21:02:35.276Z,17.70
2018-04-04T21:05:04.311Z,17.03
2018-04-04T21:07:33.515Z,17.10
2018-04-04T21:10:02.508Z,17.70
2018-04-04T21:12:31.504Z,18.50
2018-04-04T21:15:00.497Z,15.87
2018-04-04T21:17:29.624Z,17.50
2018-04-04T21:19:58.587Z,16.07
2018-04-04T21:22:27.711Z,16.30
2018-04-04T21:24:56.835Z,16.20
2018-04-04T21:27:26.008Z,16.70
2018-04-04T21:29:55.308Z,16.77
2018-04-04T21:32:24.655Z,19.33
2018-04-04T21:34:53.779Z,17.97
2018-04-04T21:37:23.151Z,18.77
2018-04-04T21:39:53.171Z,19.43
2018-04-04T21:42:23.046Z,17.50
2018-04-04T21:44:52.028Z,18.63
2018-04-04T21:47:22.203Z,17.57
2018-04-04T21:49:51.448Z,16.70
2018-04-04T21:52:20.671Z,18.33
2018-04-04T21:54:49.795Z,22.03
2018-04-04T21:57:18.938Z,17.43
2018-04-04T21:59:47.971Z,16.23
2018-04-04T22:02:17.461Z,16.60
2018-04-04T22:04:47.403Z,15.73
2018-04-04T22:07:16.480Z,16.40
2018-04-04T22:09:45.802Z,15.97
2018-04-04T22:12:15.318Z,17.10
2018-04-04T22:14:44.461Z,14.67
2018-04-04T22:17:14.339Z,15.40
2018-04-04T22:19:43.384Z,17.23
2018-04-04T22:22:12.426Z,16.70
2018-04-04T22:24:41.714Z,16.90
2018-04-04T22:27:11.164Z,15.23
2018-04-04T22:29:40.347Z,16.13
2018-04-04T22:32:09.563Z,17.30
2018-04-04T22:34:38.663Z,15.13
2018-04-04T22:37:08.675Z,16.13
2018-04-04T22:39:38.451Z,14.30
2018-04-04T22:42:07.658Z,15.70
2018-04-04T22:44:37.702Z,17.00
2018-04-04T22:47:06.771Z,16.77
2018-04-04T22:49:35.874Z,18.63
2018-04-04T22:52:05.751Z,16.40
2018-04-04T22:54:35.210Z,15.03
2018-04-04T22:57:05.262Z,16.83
2018-04-04T22:59:34.675Z,17.30
2018-04-04T23:02:04.118Z,17.53
2018-04-04T23:04:33.355Z,17.53
2018-04-04T23:07:02.592Z,15.30
2018-04-04T23:09:31.659Z,15.10
2018-04-04T23:12:01.183Z,15.63
2018-04-04T23:14:30.318Z,14.17
2018-04-04T23:16:59.727Z,15.43
2018-04-04T23:19:29.435Z,14.40
2018-04-04T23:21:59.667Z,15.13
2018-04-04T23:24:29.712Z,15.07
2018-04-04T23:26:59.087Z,15.70
2018-04-04T23:29:29.163Z,15.50
2018-04-04T23:31:58.619Z,16.70
2018-04-04T23:34:27.802Z,16.47
2018-04-04T23:36:57.043Z,15.23
2018-04-04T23:39:26.030Z,14.03
2018-04-04T23:41:56.152Z,13.80
2018-04-04T23:44:25.555Z,13.33
2018-04-04T23:46:54.863Z,14.57
2018-04-04T23:49:24.955Z,14.87
2018-04-04T23:51:54.831Z,13.30
2018-04-04T23:54:24.226Z,15.37
2018-04-04T23:56:53.575Z,13.80
2018-04-04T23:59:23.651Z,14.27
